메인 페이지
METAR-TAF:

METAR-TAF

공항 :

로스앤젤레스 국제공항

로스앤젤레스, 캘리포니아, 미국

위도: 33-56-17N, 경도: 118-23-20W, 고도: 38m

현재 날씨관측

예보는 32분 전, 21:53시(UTC)에 발표되었습니다.
11kt
온도 18°C
습도 68%
기압 1017 hPa
시정: 16.1km
고도 1100ft 상공 구름 조금
고도 17000ft 상공 구름 조금
고도 22000ft 상공 구름 보통
고도 30000ft 상공 구름 많음

METAR: KLAX 202153Z 27011KT 10SM FEW011 FEW170 SCT220 BKN300 18/12 A3002 RMK AO2 SLP165 T01780117 $

시각: 14:25 (22:25 UTC)

예보

예보는 1 시간 33분 전, 20:52시(UTC)에 발표되었습니다.
예보 대상 시간: 20일 21시부터 21일 24시까지 (UTC)
8kt
시정: 10km
고도 18000ft 상공 구름 조금
고도 30000ft 상공 구름 많음
21일 0300시부터 (UTC)
12kt
시정: 10km
고도 2500ft 상공 구름 많음
21일 0500시부터 (UTC)
15kt, 순간 최대 풍속 25kt
시정: 10km
고도 2500ft 상공 구름 많음
고도 12000ft 상공 흐림
21일 1000시부터 (UTC)
북서15kt, 순간 최대 풍속 22kt
시정: 10km
고도 3000ft 상공 구름 보통
고도 15000ft 상공 구름 많음
21일 1600시부터 (UTC)
서북서12kt
시정: 10km
고도 15000ft 상공 구름 보통
21일 2000시부터 (UTC)
15kt
시정: 10km
고도 15000ft 상공 구름 보통

TAF: KLAX 202052Z 2021/2124 26008KT P6SM FEW180 BKN300 FM210300 27012KT P6SM BKN025 FM210500 27015G25KT P6SM BKN025 OVC120 FM211000 31015G22KT P6SM SCT030 BKN150 FM211600 30012KT P6SM SCT150 FM212000 28015KT P6SM SCT150

4,000개 이상의 공항 관측 자료 및 예보 (METAR 및 TAF 보고).

지도상에서 검색 가능한 기상관측소가 노란 점과 빨간 점으로 표시되어 있습니다.

기상관측소 명을 보려면 표시 위로 마우스를 이동하세요.

날씨 관측과 예보를 보려면 클릭하세요.

지도 변경 : 확대하려면 엑스 표시가 있는 녹색 버튼, 축소하려면 빼기 표시가 있는 녹색 버튼, 다음 페이지의 지도를 보려면 녹색 화살표를 클릭하세요.


METAR-TAF: